Time;durP1;ratioP1;P1;durP2;ratioP2;P2;SDS_P1;SDS_P2;PMS_P1;PMS_P2;Temp;Humidity;BMP_temperature;BMP_pressure;BME280_temperature;BME280_humidity;BME280_pressure;Samples;Min_cycle;Max_cycle;Signal;HPM_P1;HPM_P2
2021/08/29 00:02:14;;;;;;;6.72;4.30;;;17.20;99.90;;;;;;5143944;28;20200;-65
2021/08/29 00:04:40;;;;;;;11.67;5.50;;;17.10;99.90;;;;;;5146329;28;20404;-66
2021/08/29 00:07:06;;;;;;;17.88;5.65;;;17.10;99.90;;;;;;5146552;28;20190;-66
2021/08/29 00:09:31;;;;;;;15.50;5.13;;;17.10;99.90;;;;;;5146370;28;20202;-66
2021/08/29 00:11:57;;;;;;;15.68;4.93;;;17.10;99.90;;;;;;5143867;28;20166;-66
2021/08/29 00:14:23;;;;;;;12.35;5.03;;;17.10;99.90;;;;;;5146139;28;20170;-66
2021/08/29 00:16:48;;;;;;;14.60;5.00;;;17.00;99.90;;;;;;5146322;28;20162;-65
2021/08/29 00:19:14;;;;;;;13.15;5.47;;;17.10;99.90;;;;;;5146375;28;20158;-66
2021/08/29 00:21:39;;;;;;;11.88;5.30;;;17.10;99.90;;;;;;5143909;28;20186;-66
2021/08/29 00:24:05;;;;;;;15.77;5.30;;;17.10;99.90;;;;;;5146332;28;20166;-66
2021/08/29 00:26:31;;;;;;;17.35;5.57;;;17.00;99.90;;;;;;5146401;28;20166;-66
2021/08/29 00:28:56;;;;;;;13.32;5.40;;;16.90;99.90;;;;;;5145685;28;20225;-66
2021/08/29 00:31:22;;;;;;;15.70;4.78;;;16.80;99.90;;;;;;5143909;28;20218;-66
2021/08/29 00:33:48;;;;;;;15.35;5.00;;;16.80;99.90;;;;;;5146028;28;20172;-66
2021/08/29 00:36:13;;;;;;;11.68;4.90;;;16.80;99.90;;;;;;5146385;28;20564;-66
2021/08/29 00:38:39;;;;;;;8.35;4.93;;;16.90;99.90;;;;;;5149145;27;20173;-66
2021/08/29 00:41:09;;;;;;;16.38;5.50;;;16.90;99.90;;;;;;5146452;27;20170;-66
2021/08/29 00:43:35;;;;;;;15.48;5.35;;;16.90;99.90;;;;;;5149849;27;20193;-66
2021/08/29 00:46:00;;;;;;;17.52;4.80;;;16.80;99.90;;;;;;5149583;27;20166;-66
2021/08/29 00:48:26;;;;;;;11.35;4.90;;;16.80;99.90;;;;;;5149800;27;20211;-66
2021/08/29 00:50:53;;;;;;;9.48;4.43;;;16.80;99.90;;;;;;5149032;27;20226;-66
2021/08/29 00:53:23;;;;;;;9.95;4.75;;;16.80;99.90;;;;;;5148360;27;20158;-66
2021/08/29 00:55:50;;;;;;;18.83;4.72;;;16.80;99.90;;;;;;5149650;27;20185;-66
2021/08/29 00:58:17;;;;;;;13.02;4.68;;;16.80;99.90;;;;;;5148181;27;20199;-66
2021/08/29 01:00:43;;;;;;;11.07;4.53;;;16.70;99.90;;;;;;5149333;27;20190;-66
2021/08/29 01:03:20;;;;;;;9.38;4.40;;;16.80;99.90;;;;;;5147320;27;20190;-66
2021/08/29 01:06:11;;;;;;;10.40;4.68;;;16.80;99.90;;;;;;5149447;27;20619;-66
2021/08/29 01:08:40;;;;;;;11.98;4.78;;;16.80;99.90;;;;;;5140696;27;20211;-66
2021/08/29 01:11:17;;;;;;;10.18;4.95;;;16.70;99.90;;;;;;5147019;27;20489;-66
2021/08/29 01:13:46;;;;;;;15.82;5.25;;;16.80;99.90;;;;;;5148914;27;20162;-66
2021/08/29 01:16:15;;;;;;;13.77;5.78;;;16.60;99.90;;;;;;5149271;27;20607;-66
2021/08/29 01:18:42;;;;;;;8.55;5.00;;;16.50;99.90;;;;;;5149143;27;20169;-66
2021/08/29 01:21:15;;;;;;;9.57;4.47;;;16.60;99.90;;;;;;5146605;27;20165;-66
2021/08/29 01:23:45;;;;;;;9.13;5.40;;;16.70;99.90;;;;;;5149108;27;20190;-66
2021/08/29 01:26:21;;;;;;;12.90;5.03;;;16.70;99.90;;;;;;5149093;27;20182;-66
2021/08/29 01:29:05;;;;;;;12.00;5.63;;;16.70;99.90;;;;;;5148433;27;20170;-66
2021/08/29 01:31:34;;;;;;;12.43;5.47;;;16.90;99.90;;;;;;5146140;27;20163;-66
2021/08/29 01:34:07;;;;;;;8.15;5.13;;;16.70;99.90;;;;;;5148845;27;20158;-66
2021/08/29 01:36:33;;;;;;;12.02;5.10;;;16.60;99.90;;;;;;5148991;27;20165;-66
2021/08/29 01:39:01;;;;;;;14.18;5.72;;;16.50;99.90;;;;;;5148446;27;20162;-66
2021/08/29 01:41:27;;;;;;;10.32;5.15;;;16.50;99.90;;;;;;5146115;27;20237;-66
2021/08/29 01:43:53;;;;;;;9.70;4.85;;;16.60;99.90;;;;;;5146829;27;20173;-66
2021/08/29 01:46:19;;;;;;;17.73;5.63;;;16.70;99.90;;;;;;5148712;27;20213;-66
2021/08/29 01:48:46;;;;;;;15.07;5.07;;;16.70;99.90;;;;;;5147762;27;20166;-65
2021/08/29 01:51:12;;;;;;;15.38;5.30;;;16.70;99.90;;;;;;5146035;27;20150;-66
2021/08/29 01:53:39;;;;;;;15.30;5.30;;;16.70;99.90;;;;;;5147130;27;20172;-66
2021/08/29 01:56:05;;;;;;;10.82;4.70;;;16.70;99.90;;;;;;5148511;27;20162;-65
2021/08/29 01:58:32;;;;;;;10.40;5.03;;;16.70;99.90;;;;;;5148100;27;20177;-66
2021/08/29 02:01:00;;;;;;;11.13;5.00;;;16.70;99.90;;;;;;5145197;27;20544;-66
2021/08/29 02:03:26;;;;;;;15.77;5.15;;;16.70;99.90;;;;;;5147792;27;20215;-65
2021/08/29 02:06:05;;;;;;;12.10;5.45;;;16.80;99.90;;;;;;5148145;27;20185;-66
2021/08/29 02:08:33;;;;;;;12.18;5.30;;;16.80;99.90;;;;;;5147874;27;20176;-66
2021/08/29 02:10:59;;;;;;;12.80;5.00;;;16.90;99.90;;;;;;5146357;27;20498;-66
2021/08/29 02:13:28;;;;;;;13.73;4.93;;;16.80;99.90;;;;;;5147568;27;20155;-66
2021/08/29 02:16:10;;;;;;;8.15;5.00;;;16.80;99.90;;;;;;5147552;27;20169;-66
2021/08/29 02:18:37;;;;;;;12.93;5.38;;;17.00;99.90;;;;;;5146653;27;20188;-66
2021/08/29 02:21:04;;;;;;;14.60;5.63;;;17.10;99.90;;;;;;5145882;27;20166;-65
2021/08/29 02:23:30;;;;;;;11.48;5.78;;;17.10;99.90;;;;;;5147541;27;20193;-66
2021/08/29 02:25:56;;;;;;;14.70;5.50;;;17.10;99.90;;;;;;5146501;27;20169;-66
2021/08/29 02:28:23;;;;;;;12.55;4.95;;;17.10;99.90;;;;;;5147768;27;20193;-66
2021/08/29 02:30:50;;;;;;;8.55;4.97;;;17.20;99.90;;;;;;5146741;27;20178;-66
2021/08/29 02:33:16;;;;;;;12.35;5.07;;;17.20;99.90;;;;;;5146180;27;20162;-65
2021/08/29 02:35:43;;;;;;;10.00;5.20;;;17.20;99.90;;;;;;5147803;27;20173;-66
2021/08/29 02:38:09;;;;;;;8.23;5.25;;;17.30;99.90;;;;;;5147572;27;20546;-66
2021/08/29 02:40:37;;;;;;;8.43;5.18;;;17.20;99.90;;;;;;5147640;27;20185;-66
2021/08/29 02:43:03;;;;;;;11.55;5.28;;;17.20;99.90;;;;;;5144770;27;20193;-66
2021/08/29 02:45:29;;;;;;;10.98;5.60;;;17.20;99.90;;;;;;5147238;27;20194;-66
2021/08/29 02:47:55;;;;;;;9.63;5.43;;;17.30;99.90;;;;;;5147099;27;20162;-66
2021/08/29 02:50:22;;;;;;;12.85;5.55;;;17.30;99.90;;;;;;5147501;27;20185;-66
2021/08/29 02:52:48;;;;;;;15.88;5.47;;;17.30;99.90;;;;;;5144232;27;20495;-66
2021/08/29 02:55:17;;;;;;;11.98;5.68;;;17.40;99.90;;;;;;5146037;27;20162;-66
2021/08/29 02:57:47;;;;;;;16.33;5.82;;;17.40;99.90;;;;;;5146353;27;20165;-65
2021/08/29 03:00:14;;;;;;;11.10;5.05;;;17.60;99.90;;;;;;5145972;27;20223;-66
2021/08/29 03:02:41;;;;;;;11.05;5.32;;;17.50;99.90;;;;;;5143124;27;20219;-66
2021/08/29 03:05:08;;;;;;;16.98;5.75;;;17.50;99.90;;;;;;5146645;27;20158;-65
2021/08/29 03:07:34;;;;;;;15.95;5.25;;;17.40;99.90;;;;;;5146697;27;20150;-66
2021/08/29 03:10:00;;;;;;;18.00;6.15;;;17.40;99.90;;;;;;5145412;27;20212;-66
2021/08/29 03:12:26;;;;;;;12.25;4.70;;;17.50;99.90;;;;;;5144457;27;20162;-66
2021/08/29 03:14:53;;;;;;;10.50;4.93;;;17.50;99.90;;;;;;5146554;27;20199;-66
2021/08/29 03:17:21;;;;;;;16.83;5.78;;;17.50;99.90;;;;;;5145807;27;20162;-66
2021/08/29 03:19:47;;;;;;;10.18;4.90;;;17.40;99.90;;;;;;5145408;27;20173;-66
2021/08/29 03:22:13;;;;;;;18.10;5.25;;;17.40;99.90;;;;;;5144414;27;20205;-66
2021/08/29 03:24:39;;;;;;;10.70;4.75;;;17.40;99.90;;;;;;5147025;27;20162;-66
2021/08/29 03:27:05;;;;;;;9.95;4.53;;;17.40;99.90;;;;;;5146885;27;20158;-66
2021/08/29 03:29:31;;;;;;;14.52;5.53;;;17.40;99.90;;;;;;5146257;27;20169;-65
2021/08/29 03:31:59;;;;;;;14.38;5.30;;;17.40;99.90;;;;;;5144125;27;20170;-65
2021/08/29 03:34:26;;;;;;;11.45;5.53;;;17.50;99.90;;;;;;5146676;28;20166;-66
2021/08/29 03:36:53;;;;;;;11.82;4.82;;;17.50;99.90;;;;;;5146773;28;20173;-65
2021/08/29 03:39:18;;;;;;;9.38;5.18;;;17.50;99.90;;;;;;5145362;28;20173;-65
2021/08/29 03:41:45;;;;;;;16.30;5.65;;;17.40;99.90;;;;;;5143930;28;20250;-66
2021/08/29 03:44:13;;;;;;;7.55;5.00;;;17.20;99.90;;;;;;5146495;28;20176;-66
2021/08/29 03:46:39;;;;;;;10.52;5.32;;;17.10;99.90;;;;;;5146768;28;20169;-66
2021/08/29 03:49:06;;;;;;;9.68;5.13;;;17.20;99.90;;;;;;5146304;28;20186;-65
2021/08/29 03:51:34;;;;;;;11.27;4.97;;;17.10;99.90;;;;;;5144166;28;20162;-66
2021/08/29 03:54:00;;;;;;;9.88;5.32;;;17.10;99.90;;;;;;5146500;28;20178;-65
2021/08/29 03:56:27;;;;;;;13.85;5.72;;;17.10;99.90;;;;;;5146765;28;20162;-66
2021/08/29 03:58:53;;;;;;;12.00;5.60;;;17.10;99.90;;;;;;5146054;28;20177;-66
2021/08/29 04:01:19;;;;;;;12.82;5.38;;;17.10;99.90;;;;;;5143718;28;20162;-66
2021/08/29 04:03:44;;;;;;;15.10;5.20;;;17.20;99.90;;;;;;5146224;28;20190;-66
2021/08/29 04:06:13;;;;;;;9.82;5.47;;;17.30;99.90;;;;;;5146539;28;20348;-66
2021/08/29 04:08:44;;;;;;;10.18;5.28;;;17.30;99.90;;;;;;5146183;28;20230;-66
2021/08/29 04:11:10;;;;;;;15.77;5.68;;;17.40;99.90;;;;;;5143835;28;20170;-66
2021/08/29 04:13:37;;;;;;;11.00;5.57;;;17.30;99.90;;;;;;5149254;27;20529;-66
2021/08/29 04:16:04;;;;;;;12.50;6.35;;;17.40;99.90;;;;;;5150090;27;20169;-66
2021/08/29 04:18:36;;;;;;;19.58;7.70;;;17.50;99.90;;;;;;5150285;27;20176;-65
2021/08/29 04:21:02;;;;;;;20.75;6.82;;;17.40;99.90;;;;;;5148232;27;20189;-66
2021/08/29 04:23:28;;;;;;;12.70;7.72;;;17.40;99.90;;;;;;5150057;27;20193;-66
2021/08/29 04:25:54;;;;;;;15.40;7.18;;;17.40;99.90;;;;;;5150114;27;20173;-66
2021/08/29 04:28:20;;;;;;;8.98;6.50;;;17.50;99.90;;;;;;5150027;27;20166;-66
2021/08/29 04:30:47;;;;;;;11.30;6.35;;;17.50;99.90;;;;;;5149384;27;20184;-66
2021/08/29 04:33:13;;;;;;;14.93;6.18;;;17.40;99.90;;;;;;5148213;27;20179;-66
2021/08/29 04:35:38;;;;;;;11.70;6.93;;;17.50;99.90;;;;;;5149993;27;20162;-66
2021/08/29 04:38:04;;;;;;;9.40;6.18;;;17.40;99.90;;;;;;5149754;27;20173;-66
2021/08/29 04:40:31;;;;;;;14.80;6.18;;;17.50;99.90;;;;;;5149857;27;20177;-65
2021/08/29 04:42:57;;;;;;;15.48;7.05;;;17.50;99.90;;;;;;5146987;27;20190;-66
2021/08/29 04:45:22;;;;;;;16.10;6.72;;;17.50;99.90;;;;;;5149448;27;20189;-66
2021/08/29 04:47:48;;;;;;;15.82;6.47;;;17.60;99.90;;;;;;5148350;27;20165;-66
2021/08/29 04:50:14;;;;;;;20.48;6.65;;;17.40;99.90;;;;;;5148388;27;20158;-66
2021/08/29 04:52:39;;;;;;;13.43;6.95;;;17.40;99.90;;;;;;5147166;27;20203;-65
2021/08/29 04:55:05;;;;;;;13.25;6.50;;;17.30;99.90;;;;;;5149568;27;20585;-66
2021/08/29 04:57:31;;;;;;;13.15;6.43;;;17.10;99.90;;;;;;5149508;27;20581;-65
2021/08/29 04:59:57;;;;;;;16.42;6.85;;;17.00;99.90;;;;;;5148861;27;20178;-66
2021/08/29 05:02:22;;;;;;;12.48;6.75;;;17.00;99.90;;;;;;5146829;27;20193;-66
2021/08/29 05:04:48;;;;;;;12.95;6.60;;;17.00;99.90;;;;;;5147859;27;20158;-65
2021/08/29 05:07:14;;;;;;;14.90;6.80;;;17.10;99.90;;;;;;5149576;27;20642;-66
2021/08/29 05:09:39;;;;;;;18.35;6.32;;;17.10;99.90;;;;;;5149199;27;20202;-66
2021/08/29 05:12:05;;;;;;;12.10;5.78;;;17.10;99.90;;;;;;5146839;27;20173;-66
2021/08/29 05:14:31;;;;;;;14.00;6.28;;;17.20;99.90;;;;;;5147759;27;20210;-66
2021/08/29 05:16:56;;;;;;;13.07;6.18;;;17.20;99.90;;;;;;5149157;27;20158;-66
2021/08/29 05:19:22;;;;;;;14.65;6.72;;;17.20;99.90;;;;;;5149057;27;20200;-66
2021/08/29 05:21:47;;;;;;;15.40;6.68;;;17.30;99.90;;;;;;5145238;27;20191;-66
2021/08/29 05:24:13;;;;;;;15.23;6.45;;;17.40;99.90;;;;;;5148329;27;20583;-65
2021/08/29 05:26:39;;;;;;;13.73;6.63;;;17.30;99.90;;;;;;5149428;27;20210;-66
2021/08/29 05:29:04;;;;;;;14.00;6.43;;;17.40;99.90;;;;;;5148418;27;20623;-66
2021/08/29 05:31:30;;;;;;;9.35;5.80;;;17.40;99.90;;;;;;5146437;27;20166;-66
2021/08/29 05:33:55;;;;;;;14.27;5.45;;;17.40;99.90;;;;;;5148957;27;20159;-66
2021/08/29 05:36:21;;;;;;;14.50;6.45;;;17.50;99.90;;;;;;5149050;27;20225;-66
2021/08/29 05:38:47;;;;;;;14.32;6.25;;;17.50;99.90;;;;;;5148561;27;20177;-66
2021/08/29 05:41:12;;;;;;;19.77;6.78;;;17.70;99.90;;;;;;5146377;27;20165;-66
2021/08/29 05:43:38;;;;;;;13.70;6.47;;;17.90;99.90;;;;;;5148707;27;20197;-65
2021/08/29 05:46:03;;;;;;;12.05;6.40;;;17.90;99.90;;;;;;5148281;27;20165;-66
2021/08/29 05:48:29;;;;;;;14.73;6.40;;;18.00;99.90;;;;;;5148571;27;20165;-66
2021/08/29 05:50:55;;;;;;;15.00;7.07;;;18.00;99.90;;;;;;5147332;27;20237;-66
2021/08/29 05:53:20;;;;;;;12.55;6.57;;;17.90;99.90;;;;;;5147569;27;20225;-66
2021/08/29 05:55:46;;;;;;;13.93;6.93;;;18.00;99.90;;;;;;5148243;27;20158;-65
2021/08/29 05:58:11;;;;;;;14.95;6.57;;;18.00;99.90;;;;;;5148296;27;20158;-66
2021/08/29 06:00:37;;;;;;;9.30;6.47;;;18.00;99.90;;;;;;5148166;27;20245;-66
2021/08/29 06:03:03;;;;;;;10.85;6.00;;;17.80;99.90;;;;;;5145615;27;20221;-66
2021/08/29 06:05:30;;;;;;;10.70;6.00;;;17.70;99.90;;;;;;5148413;27;20184;-65
2021/08/29 06:07:56;;;;;;;11.32;5.70;;;17.70;99.90;;;;;;5148370;27;20632;-66
2021/08/29 06:10:22;;;;;;;16.85;6.50;;;17.80;99.90;;;;;;5148082;27;20201;-66
2021/08/29 06:12:48;;;;;;;16.73;6.63;;;17.90;99.90;;;;;;5145398;27;20155;-66
2021/08/29 06:15:13;;;;;;;14.05;5.90;;;18.10;99.90;;;;;;5148115;27;20189;-65
2021/08/29 06:17:39;;;;;;;12.25;6.70;;;18.20;99.90;;;;;;5148188;27;20165;-66
2021/08/29 06:20:06;;;;;;;15.27;6.63;;;18.10;99.90;;;;;;5147975;27;20169;-66
2021/08/29 06:22:31;;;;;;;14.55;5.82;;;18.20;99.90;;;;;;5145355;27;20201;-66
2021/08/29 06:24:57;;;;;;;12.05;5.53;;;18.20;99.90;;;;;;5147965;27;20155;-66
2021/08/29 06:27:23;;;;;;;16.70;6.00;;;18.30;99.90;;;;;;5147474;27;20158;-66
2021/08/29 06:29:48;;;;;;;12.88;5.50;;;18.50;99.90;;;;;;5145958;27;20239;-66
2021/08/29 06:32:14;;;;;;;9.50;5.97;;;18.40;99.90;;;;;;5145047;27;20158;-66
2021/08/29 06:34:40;;;;;;;10.02;5.88;;;18.40;99.90;;;;;;5147781;27;20158;-66
2021/08/29 06:37:05;;;;;;;20.67;6.30;;;18.30;99.90;;;;;;5147254;27;20158;-65
2021/08/29 06:39:31;;;;;;;10.63;5.25;;;18.30;99.90;;;;;;5147467;27;20173;-66
2021/08/29 06:41:57;;;;;;;15.77;5.78;;;18.40;99.90;;;;;;5144816;27;20190;-66
2021/08/29 06:44:22;;;;;;;13.30;5.65;;;18.60;99.90;;;;;;5147273;27;20154;-66
2021/08/29 06:46:48;;;;;;;14.25;5.50;;;18.60;99.90;;;;;;5147376;27;20526;-66
2021/08/29 06:49:13;;;;;;;9.98;5.63;;;18.70;99.90;;;;;;5147186;27;20170;-66
2021/08/29 06:51:39;;;;;;;9.65;4.60;;;18.70;99.90;;;;;;5143385;27;20173;-66
2021/08/29 06:54:05;;;;;;;13.48;4.35;;;18.60;99.90;;;;;;5147170;27;20158;-66
2021/08/29 06:56:30;;;;;;;11.27;4.72;;;18.70;99.90;;;;;;5146100;27;20184;-66
2021/08/29 06:58:56;;;;;;;8.73;4.57;;;18.80;99.90;;;;;;5146824;27;20298;-66
2021/08/29 07:01:21;;;;;;;10.80;4.68;;;18.70;99.90;;;;;;5144065;27;20270;-66
2021/08/29 07:03:47;;;;;;;11.43;4.53;;;18.90;99.90;;;;;;5146644;27;20182;-66
2021/08/29 07:06:13;;;;;;;10.77;4.65;;;19.00;99.90;;;;;;5145990;27;20162;-66
2021/08/29 07:08:38;;;;;;;11.65;4.65;;;19.00;99.90;;;;;;5146767;27;20168;-66
2021/08/29 07:11:04;;;;;;;10.98;4.50;;;18.80;99.90;;;;;;5144839;27;20174;-66
2021/08/29 07:13:30;;;;;;;10.50;4.60;;;19.00;99.90;;;;;;5146751;27;20176;-66
2021/08/29 07:15:56;;;;;;;9.18;4.35;;;18.90;99.90;;;;;;5146761;27;20166;-66
2021/08/29 07:18:22;;;;;;;11.77;4.97;;;19.00;99.90;;;;;;5144958;27;20200;-66
2021/08/29 07:20:48;;;;;;;9.55;4.25;;;19.10;99.90;;;;;;5145069;27;20161;-66
2021/08/29 07:23:13;;;;;;;8.48;4.28;;;19.20;99.90;;;;;;5144765;27;20201;-66
2021/08/29 07:25:39;;;;;;;13.98;4.47;;;19.00;99.90;;;;;;5146555;27;20165;-66
2021/08/29 07:28:05;;;;;;;15.52;4.13;;;19.00;99.90;;;;;;5146243;27;20241;-66
2021/08/29 07:30:32;;;;;;;13.35;4.25;;;19.00;99.90;;;;;;5145081;27;20238;-66
2021/08/29 07:32:58;;;;;;;8.25;4.18;;;19.00;99.90;;;;;;5142734;27;20172;-66
2021/08/29 07:35:24;;;;;;;9.43;4.05;;;19.00;99.90;;;;;;5146897;28;20241;-66
2021/08/29 07:37:49;;;;;;;12.48;3.92;;;19.00;99.90;;;;;;5146375;28;20161;-66
2021/08/29 07:40:19;;;;;;;13.93;3.45;;;18.80;99.90;;;;;;5145352;28;20181;-66
2021/08/29 07:42:45;;;;;;;9.85;3.63;;;18.60;99.90;;;;;;5143668;28;20192;-66
2021/08/29 07:45:11;;;;;;;11.63;3.97;;;18.60;99.90;;;;;;5146591;28;20170;-66
2021/08/29 07:47:37;;;;;;;11.82;3.50;;;18.70;99.90;;;;;;5148185;27;20165;-66
2021/08/29 07:50:04;;;;;;;10.68;3.30;;;18.80;99.90;;;;;;5149568;27;20174;-66
2021/08/29 07:52:29;;;;;;;9.40;3.53;;;19.00;99.90;;;;;;5148281;27;20162;-66
2021/08/29 07:54:55;;;;;;;11.25;2.97;;;19.10;99.90;;;;;;5150733;27;20241;-66
2021/08/29 07:57:21;;;;;;;10.00;3.10;;;19.30;99.90;;;;;;5150768;27;20552;-66
2021/08/29 07:59:46;;;;;;;10.73;3.22;;;19.50;99.90;;;;;;5150249;27;20197;-66
2021/08/29 08:02:13;;;;;;;10.63;2.83;;;19.40;99.90;;;;;;5147862;27;20272;-66
2021/08/29 08:04:38;;;;;;;11.93;3.53;;;19.30;99.90;;;;;;5150770;27;20161;-66
2021/08/29 08:07:04;;;;;;;7.60;2.30;;;19.50;99.90;;;;;;5150661;27;20252;-66
2021/08/29 08:09:30;;;;;;;15.88;3.60;;;19.30;99.90;;;;;;5150207;27;20235;-66
2021/08/29 08:11:55;;;;;;;14.73;3.65;;;19.00;99.90;;;;;;5147831;27;20151;-66
2021/08/29 08:14:21;;;;;;;13.63;3.17;;;18.90;99.90;;;;;;5149023;27;20642;-66
2021/08/29 08:16:47;;;;;;;6.82;3.10;;;19.00;99.90;;;;;;5150414;27;20158;-66
2021/08/29 08:19:12;;;;;;;12.60;2.95;;;19.10;99.90;;;;;;5150508;27;20162;-66
2021/08/29 08:21:38;;;;;;;9.50;3.40;;;19.20;99.90;;;;;;5147682;27;20183;-66
2021/08/29 08:24:04;;;;;;;11.70;2.97;;;18.90;99.90;;;;;;5150107;27;20231;-66
2021/08/29 08:26:30;;;;;;;8.52;2.47;;;19.00;99.90;;;;;;5150205;27;20531;-66
2021/08/29 08:28:56;;;;;;;8.60;3.22;;;19.00;99.90;;;;;;5149775;27;20192;-66
2021/08/29 08:31:22;;;;;;;11.52;3.05;;;19.10;99.90;;;;;;5145850;27;20312;-66
2021/08/29 08:33:48;;;;;;;9.98;3.30;;;19.20;99.90;;;;;;5148502;27;20176;-66
2021/08/29 08:36:14;;;;;;;10.93;3.42;;;19.10;99.90;;;;;;5150062;27;20190;-66
2021/08/29 08:38:40;;;;;;;13.73;3.22;;;19.30;99.90;;;;;;5149708;27;20166;-66
2021/08/29 08:41:06;;;;;;;7.25;2.65;;;19.40;99.90;;;;;;5146990;27;20580;-66
2021/08/29 08:43:32;;;;;;;9.70;3.35;;;19.50;99.90;;;;;;5149801;27;20201;-66
2021/08/29 08:45:58;;;;;;;9.30;2.90;;;19.40;99.90;;;;;;5149434;27;20162;-66
2021/08/29 08:48:26;;;;;;;9.43;3.05;;;19.60;99.90;;;;;;5149428;27;20657;-66
2021/08/29 08:50:52;;;;;;;7.47;3.55;;;19.60;99.90;;;;;;5148458;27;20189;-66
2021/08/29 08:53:23;;;;;;;7.40;2.60;;;19.70;99.90;;;;;;5148103;27;20154;-66
2021/08/29 08:55:51;;;;;;;12.30;3.55;;;19.70;99.90;;;;;;5147828;27;20195;-66
2021/08/29 08:58:17;;;;;;;10.52;2.97;;;20.00;99.90;;;;;;5148456;27;20162;-66
2021/08/29 09:00:44;;;;;;;8.98;2.95;;;20.00;99.90;;;;;;5148291;27;20170;-67
2021/08/29 09:03:11;;;;;;;12.27;2.97;;;20.20;99.90;;;;;;5145757;27;20659;-66
2021/08/29 09:05:38;;;;;;;8.63;2.50;;;20.10;99.90;;;;;;5147782;27;20214;-66
2021/08/29 09:08:07;;;;;;;9.25;2.58;;;19.90;99.90;;;;;;5149345;27;20173;-66
2021/08/29 09:10:33;;;;;;;8.50;2.53;;;19.80;99.90;;;;;;5148948;27;20213;-66
2021/08/29 09:13:01;;;;;;;11.88;3.35;;;19.50;99.90;;;;;;5146585;27;20173;-65
2021/08/29 09:15:27;;;;;;;10.40;2.70;;;19.90;99.90;;;;;;5148838;27;20227;-66
2021/08/29 09:17:53;;;;;;;6.68;2.50;;;19.60;99.90;;;;;;5149126;27;20162;-65
2021/08/29 09:20:21;;;;;;;12.55;3.40;;;19.70;99.90;;;;;;5148913;27;20158;-66
2021/08/29 09:22:52;;;;;;;11.82;3.05;;;20.00;99.90;;;;;;5146379;27;20270;-66
2021/08/29 09:25:21;;;;;;;11.25;2.78;;;20.10;99.90;;;;;;5149066;27;20169;-66
2021/08/29 09:27:58;;;;;;;6.75;2.75;;;20.30;99.90;;;;;;5147982;27;20715;-66
2021/08/29 09:30:30;;;;;;;9.85;2.50;;;20.20;99.90;;;;;;5148020;27;20169;-65
2021/08/29 09:33:01;;;;;;;9.02;2.63;;;20.50;99.90;;;;;;5146137;27;20187;-66
2021/08/29 09:35:36;;;;;;;13.27;3.03;;;20.20;99.90;;;;;;5148864;27;20172;-66
2021/08/29 09:38:05;;;;;;;8.30;2.47;;;19.90;99.90;;;;;;5148709;27;20164;-66
2021/08/29 09:40:33;;;;;;;9.35;3.10;;;20.00;99.90;;;;;;5148408;27;20189;-66
2021/08/29 09:43:00;;;;;;;11.27;3.00;;;20.10;99.90;;;;;;5145134;27;20197;-66
2021/08/29 09:45:29;;;;;;;12.63;2.55;;;20.20;99.90;;;;;;5148362;27;20196;-66
2021/08/29 09:48:02;;;;;;;6.78;2.40;;;20.00;99.90;;;;;;5148572;27;20169;-66
2021/08/29 09:50:29;;;;;;;8.55;3.03;;;20.20;99.90;;;;;;5148226;27;20178;-66
2021/08/29 09:52:59;;;;;;;14.43;2.60;;;20.50;99.90;;;;;;5145902;27;20166;-66
2021/08/29 09:55:30;;;;;;;9.05;2.80;;;20.70;99.90;;;;;;5148425;27;20162;-66
2021/08/29 09:57:56;;;;;;;9.48;2.88;;;20.70;99.90;;;;;;5148101;27;20166;-66
2021/08/29 10:00:22;;;;;;;11.00;3.00;;;20.10;99.90;;;;;;5147911;27;20189;-66
2021/08/29 10:03:04;;;;;;;5.35;2.45;;;19.80;99.90;;;;;;5145403;27;20200;-66
2021/08/29 10:05:30;;;;;;;9.95;2.33;;;19.50;99.90;;;;;;5148045;27;20186;-66
2021/08/29 10:08:04;;;;;;;8.98;2.60;;;19.20;99.90;;;;;;5148240;27;20162;-66
2021/08/29 10:10:31;;;;;;;11.75;2.53;;;19.10;99.90;;;;;;5147346;27;20193;-66
2021/08/29 10:12:58;;;;;;;9.32;2.58;;;19.20;99.90;;;;;;5144216;27;20253;-66
2021/08/29 10:15:25;;;;;;;10.77;2.80;;;19.10;99.90;;;;;;5147725;27;20258;-66
2021/08/29 10:17:52;;;;;;;10.32;2.97;;;19.20;99.90;;;;;;5147920;27;20161;-66
2021/08/29 10:20:24;;;;;;;10.00;3.28;;;19.40;99.90;;;;;;5147723;27;20186;-66
2021/08/29 10:22:50;;;;;;;8.63;2.72;;;19.50;99.90;;;;;;5145074;27;20194;-66
2021/08/29 10:25:18;;;;;;;21.00;3.10;;;19.60;99.90;;;;;;5147845;27;20177;-66
2021/08/29 10:27:55;;;;;;;6.07;2.40;;;19.50;99.90;;;;;;5147588;27;20170;-66
2021/08/29 10:30:23;;;;;;;11.38;2.67;;;19.90;99.90;;;;;;5147152;27;20192;-66
2021/08/29 10:32:51;;;;;;;11.90;3.03;;;19.90;99.90;;;;;;5143818;27;20890;-66
2021/08/29 10:35:17;;;;;;;8.98;2.90;;;20.10;99.90;;;;;;5147467;27;20158;-66
2021/08/29 10:37:46;;;;;;;13.07;4.25;;;20.00;99.90;;;;;;5146100;27;20176;-67
2021/08/29 10:40:14;;;;;;;10.25;2.63;;;20.10;99.90;;;;;;5147063;27;20209;-66
2021/08/29 10:42:44;;;;;;;12.43;3.28;;;20.10;99.90;;;;;;5142809;27;20425;-66
2021/08/29 10:45:11;;;;;;;10.73;3.63;;;20.40;99.90;;;;;;5146941;27;20220;-66
2021/08/29 10:47:38;;;;;;;9.85;4.32;;;20.30;99.90;;;;;;5147200;27;20191;-66
2021/08/29 10:50:07;;;;;;;11.52;3.45;;;20.20;99.90;;;;;;5146605;27;20196;-66
2021/08/29 10:52:34;;;;;;;10.25;3.33;;;20.50;99.90;;;;;;5144225;27;20173;-66
2021/08/29 10:55:06;;;;;;;10.73;2.85;;;20.90;99.90;;;;;;5146940;27;20162;-66
2021/08/29 10:57:42;;;;;;;8.00;2.72;;;20.70;99.90;;;;;;5146849;27;20168;-66
2021/08/29 11:00:19;;;;;;;9.02;2.75;;;20.80;99.90;;;;;;5146368;27;20252;-66
2021/08/29 11:02:49;;;;;;;6.35;2.42;;;21.20;99.90;;;;;;5144100;27;20242;-66
2021/08/29 11:05:35;;;;;;;10.55;2.45;;;21.30;99.90;;;;;;5146700;27;20154;-66
2021/08/29 11:08:24;;;;;;;12.43;2.50;;;21.50;99.90;;;;;;5135569;27;20189;-66
2021/08/29 11:10:50;;;;;;;10.93;2.28;;;21.80;99.90;;;;;;5144571;27;20203;-66
2021/08/29 11:13:32;;;;;;;11.18;2.10;;;21.30;99.90;;;;;;5143895;27;20172;-66
2021/08/29 11:16:11;;;;;;;7.88;2.97;;;21.40;99.90;;;;;;5146101;27;20201;-66
2021/08/29 11:18:58;;;;;;;5.78;1.88;;;21.90;99.90;;;;;;5146334;27;20164;-66
2021/08/29 11:21:47;;;;;;;5.15;2.45;;;22.20;99.90;;;;;;5143877;27;20166;-66
2021/08/29 11:24:13;;;;;;;5.75;2.60;;;21.90;99.90;;;;;;5146777;27;20254;-66
2021/08/29 11:26:42;;;;;;;6.57;2.17;;;22.10;99.90;;;;;;5146642;27;20158;-66
2021/08/29 11:29:40;;;;;;;6.53;2.13;;;22.10;99.90;;;;;;5146318;27;20170;-66
2021/08/29 11:32:06;;;;;;;8.55;2.05;;;22.00;99.90;;;;;;5143287;27;20190;-66
2021/08/29 11:34:32;;;;;;;7.13;2.40;;;22.10;99.90;;;;;;5146497;27;20222;-66
2021/08/29 11:36:57;;;;;;;7.45;2.17;;;22.20;99.90;;;;;;5145518;28;20219;-66
2021/08/29 11:39:37;;;;;;;12.38;3.03;;;22.20;99.90;;;;;;5145994;28;20173;-66
2021/08/29 11:42:12;;;;;;;11.27;2.03;;;22.30;99.90;;;;;;5143817;28;20187;-66
2021/08/29 11:44:39;;;;;;;6.95;2.13;;;22.10;99.90;;;;;;5146005;28;20185;-66
2021/08/29 11:47:05;;;;;;;12.93;2.80;;;22.00;99.90;;;;;;5146169;28;20165;-67
2021/08/29 11:49:32;;;;;;;10.95;2.45;;;21.70;99.90;;;;;;5146263;28;20576;-66
2021/08/29 11:51:58;;;;;;;5.93;2.42;;;21.50;99.90;;;;;;5143836;28;20166;-66
2021/08/29 11:54:23;;;;;;;7.38;2.35;;;21.30;99.90;;;;;;5146423;28;20158;-66
2021/08/29 11:56:49;;;;;;;9.30;2.70;;;21.10;99.90;;;;;;5146440;28;20190;-66
2021/08/29 11:59:27;;;;;;;10.13;2.92;;;21.00;99.90;;;;;;5146090;28;20169;-66
2021/08/29 12:01:58;;;;;;;7.28;2.45;;;21.10;99.90;;;;;;5143420;28;20170;-67
2021/08/29 12:04:24;;;;;;;15.10;3.88;;;21.00;99.90;;;;;;5145916;28;20169;-67
2021/08/29 12:07:05;;;;;;;8.27;3.03;;;20.60;99.90;;;;;;5146188;28;20165;-66
2021/08/29 12:09:37;;;;;;;10.32;2.47;;;20.90;99.90;;;;;;5145517;28;20208;-66
2021/08/29 12:12:05;;;;;;;11.35;2.55;;;21.00;99.90;;;;;;5143511;28;20155;-67
2021/08/29 12:14:30;;;;;;;12.20;3.30;;;21.00;99.90;;;;;;5145682;28;20159;-66
2021/08/29 12:17:02;;;;;;;7.80;2.50;;;20.80;99.90;;;;;;5146052;28;20162;-66
2021/08/29 12:19:31;;;;;;;10.93;2.35;;;20.80;99.90;;;;;;5144466;28;20177;-67
2021/08/29 12:22:00;;;;;;;8.93;3.00;;;20.70;99.90;;;;;;5143511;28;20186;-66
2021/08/29 12:24:32;;;;;;;10.40;2.63;;;20.50;99.90;;;;;;5146079;28;20166;-66
2021/08/29 12:27:18;;;;;;;9.88;2.78;;;20.40;99.90;;;;;;5144920;28;20608;-66
2021/08/29 12:29:55;;;;;;;10.82;2.85;;;20.70;99.90;;;;;;5145262;28;20197;-66
2021/08/29 12:32:37;;;;;;;9.05;2.95;;;20.40;99.90;;;;;;5143656;27;20162;-66
2021/08/29 12:35:08;;;;;;;6.75;2.92;;;20.40;99.90;;;;;;5149540;27;20374;-66
2021/08/29 12:37:46;;;;;;;8.25;2.90;;;20.40;99.90;;;;;;5149980;27;20154;-67
2021/08/29 12:40:16;;;;;;;10.73;3.20;;;20.60;99.90;;;;;;5149653;27;20237;-66
2021/08/29 12:42:45;;;;;;;10.55;3.20;;;20.50;99.90;;;;;;5147177;27;20247;-67
2021/08/29 12:45:14;;;;;;;8.45;2.63;;;20.30;99.90;;;;;;5149126;27;20197;-66